Time;durP1;ratioP1;P1;durP2;ratioP2;P2;SDS_P1;SDS_P2;PMS_P1;PMS_P2;Temp;Humidity;BMP_temperature;BMP_pressure;BME280_temperature;BME280_humidity;BME280_pressure;Samples;Min_cycle;Max_cycle;Signal;HPM_P1;HPM_P2
2022/01/06 00:02:09;;;;;;;8.97;4.97;;;4.70;99.90;;;;;;2610161;54;20439;-75
2022/01/06 00:04:35;;;;;;;8.93;4.53;;;4.70;99.90;;;;;;2609478;54;20391;-75
2022/01/06 00:07:01;;;;;;;16.60;5.10;;;4.60;99.90;;;;;;2610587;54;20432;-74
2022/01/06 00:09:27;;;;;;;9.13;4.93;;;4.60;99.90;;;;;;2611119;39;20560;-74
2022/01/06 00:11:53;;;;;;;10.87;5.03;;;4.60;99.90;;;;;;2609109;47;20465;-75
2022/01/06 00:14:36;;;;;;;14.77;5.80;;;4.60;99.90;;;;;;2611344;47;20982;-75
2022/01/06 00:25:15;;;;;;;15.83;5.90;;;4.50;99.90;;;;;;2611001;54;20450;-74
2022/01/06 00:27:41;;;;;;;17.17;5.03;;;4.40;99.90;;;;;;2610024;54;20903;-73
2022/01/06 00:30:08;;;;;;;16.43;5.00;;;4.40;99.90;;;;;;2609344;47;20423;-74
2022/01/06 00:32:34;;;;;;;12.70;5.30;;;4.40;99.90;;;;;;2607638;46;20447;-73
2022/01/06 00:35:00;;;;;;;16.47;5.47;;;4.40;99.90;;;;;;2611023;54;20423;-74
2022/01/06 00:37:27;;;;;;;10.53;3.30;;;4.30;99.90;;;;;;2611403;54;20424;-74
2022/01/06 00:39:53;;;;;;;3.43;3.13;;;4.30;99.90;;;;;;2610710;54;21055;-75
2022/01/06 00:42:18;;;;;;;9.00;4.70;;;4.20;99.90;;;;;;2610344;54;20452;-74
2022/01/06 00:44:44;;;;;;;7.77;3.70;;;4.20;99.90;;;;;;2610031;54;20159;-73
2022/01/06 00:47:10;;;;;;;13.50;3.70;;;4.20;99.90;;;;;;2611213;39;20824;-76
2022/01/06 00:49:37;;;;;;;10.17;5.57;;;4.20;99.90;;;;;;2609925;54;20150;-76
2022/01/06 00:52:03;;;;;;;19.87;4.70;;;4.30;99.90;;;;;;2610330;54;20151;-76
2022/01/06 00:54:32;;;;;;;22.53;6.30;;;4.20;99.90;;;;;;2611377;47;20453;-73
2022/01/06 00:56:57;;;;;;;11.63;5.23;;;4.10;99.90;;;;;;2608660;54;20465;-75
2022/01/06 00:59:24;;;;;;;20.67;6.30;;;4.00;99.90;;;;;;2610444;54;20394;-73
2022/01/06 01:01:50;;;;;;;13.10;5.37;;;3.90;99.90;;;;;;2607454;54;20158;-74
2022/01/06 01:04:16;;;;;;;9.27;4.20;;;3.90;99.90;;;;;;2611580;54;21084;-75
2022/01/06 01:06:42;;;;;;;17.57;6.73;;;3.90;99.90;;;;;;2609070;54;22339;-74
2022/01/06 01:09:08;;;;;;;8.40;4.70;;;3.90;99.90;;;;;;2611663;54;20464;-75
2022/01/06 01:11:33;;;;;;;15.07;5.23;;;3.80;99.90;;;;;;2609489;47;20192;-73
2022/01/06 01:14:16;;;;;;;5.77;3.10;;;3.80;99.90;;;;;;2609972;47;20420;-74
2022/01/06 01:16:50;;;;;;;16.13;5.37;;;3.80;99.90;;;;;;2610196;54;20663;-74
2022/01/06 01:19:15;;;;;;;20.70;5.83;;;3.80;99.90;;;;;;2609028;39;22381;-75
2022/01/06 01:21:42;;;;;;;14.90;4.87;;;3.60;99.90;;;;;;2608766;54;20485;-75
2022/01/06 01:24:08;;;;;;;19.13;6.13;;;3.70;99.90;;;;;;2609914;54;20273;-74
2022/01/06 01:26:36;;;;;;;13.50;6.50;;;3.60;99.90;;;;;;2609597;54;20491;-73
2022/01/06 01:29:02;;;;;;;8.97;4.57;;;3.60;99.90;;;;;;2611013;39;20799;-74
2022/01/06 01:31:35;;;;;;;20.93;5.87;;;3.60;99.90;;;;;;2608874;47;20411;-74
2022/01/06 01:34:08;;;;;;;18.50;5.67;;;3.60;99.90;;;;;;2610442;54;20410;-74
2022/01/06 01:36:35;;;;;;;14.60;4.13;;;3.60;99.90;;;;;;2610128;54;20932;-75
2022/01/06 01:39:01;;;;;;;13.87;5.80;;;3.50;99.90;;;;;;2610081;47;20488;-74
2022/01/06 01:41:26;;;;;;;13.10;6.57;;;3.50;99.90;;;;;;2610010;54;20415;-76
2022/01/06 01:43:54;;;;;;;10.33;5.37;;;3.50;99.90;;;;;;2610171;47;20414;-73
2022/01/06 01:46:28;;;;;;;9.50;5.00;;;3.50;99.90;;;;;;2610537;54;20442;-75
2022/01/06 01:51:34;;;;;;;31.63;7.03;;;3.60;99.90;;;;;;2611703;39;20834;-74
2022/01/06 01:54:01;;;;;;;12.13;3.40;;;3.70;99.90;;;;;;2610302;54;20436;-75
2022/01/06 01:56:27;;;;;;;18.33;4.70;;;3.90;99.90;;;;;;2608830;47;20162;-73
2022/01/06 01:58:53;;;;;;;19.37;5.30;;;3.90;99.90;;;;;;2610352;54;20397;-72
2022/01/06 02:01:18;;;;;;;20.10;6.07;;;3.90;99.90;;;;;;2609249;47;20439;-74
2022/01/06 02:03:44;;;;;;;20.80;5.53;;;3.90;99.90;;;;;;2610266;47;20917;-73
2022/01/06 02:06:10;;;;;;;16.47;6.67;;;3.90;99.90;;;;;;2610606;54;20267;-74
2022/01/06 02:08:36;;;;;;;10.33;4.63;;;3.90;99.90;;;;;;2608990;46;20194;-74
2022/01/06 02:11:02;;;;;;;13.13;4.80;;;3.90;99.90;;;;;;2609092;54;20162;-75
2022/01/06 02:13:28;;;;;;;15.43;5.20;;;3.80;99.90;;;;;;2611137;39;20883;-73
2022/01/06 02:15:55;;;;;;;20.00;6.10;;;3.90;99.90;;;;;;2611990;39;20921;-74
2022/01/06 02:18:21;;;;;;;15.37;5.47;;;3.70;99.90;;;;;;2607321;54;20451;-75
2022/01/06 02:20:47;;;;;;;7.97;4.13;;;3.70;99.90;;;;;;2608829;54;20424;-74
2022/01/06 02:23:13;;;;;;;12.87;5.50;;;3.60;99.90;;;;;;2609455;54;20186;-75
2022/01/06 02:25:39;;;;;;;21.70;5.80;;;3.50;99.90;;;;;;2611248;39;20666;-76
2022/01/06 02:28:05;;;;;;;19.43;4.80;;;3.50;99.90;;;;;;2608935;47;20439;-75
2022/01/06 02:30:33;;;;;;;18.23;4.80;;;3.60;99.90;;;;;;2609232;47;20449;-77
2022/01/06 02:33:01;;;;;;;13.73;5.93;;;3.60;99.90;;;;;;2609403;47;20427;-75
2022/01/06 02:35:28;;;;;;;12.60;5.13;;;3.70;99.90;;;;;;2610609;50;25553;-75
2022/01/06 02:37:54;;;;;;;13.53;4.97;;;3.90;99.90;;;;;;2610008;54;20418;-74
2022/01/06 02:40:24;;;;;;;26.37;4.87;;;4.00;99.90;;;;;;2610598;54;20454;-75
2022/01/06 02:42:52;;;;;;;7.50;4.27;;;4.00;99.90;;;;;;2609396;54;20399;-75
2022/01/06 02:45:21;;;;;;;14.70;5.07;;;4.00;99.90;;;;;;2611163;54;20476;-76
2022/01/06 02:47:47;;;;;;;8.80;3.77;;;4.00;99.90;;;;;;2608604;51;20442;-75
2022/01/06 02:50:15;;;;;;;10.00;3.30;;;4.00;99.90;;;;;;2610362;39;21145;-75
2022/01/06 02:52:41;;;;;;;17.70;6.67;;;4.00;99.90;;;;;;2609795;54;20398;-76
2022/01/06 02:55:09;;;;;;;9.60;4.47;;;4.00;99.90;;;;;;2609193;47;20428;-75
2022/01/06 02:57:34;;;;;;;9.83;4.20;;;4.00;99.90;;;;;;2609151;54;20688;-75
2022/01/06 03:00:01;;;;;;;15.80;4.50;;;3.90;99.90;;;;;;2610051;54;20479;-77
2022/01/06 03:02:28;;;;;;;12.47;4.00;;;3.90;99.90;;;;;;2610055;54;20496;-73
2022/01/06 03:04:54;;;;;;;22.93;5.30;;;3.80;99.90;;;;;;2611884;31;21120;-73
2022/01/06 03:07:20;;;;;;;22.53;5.77;;;3.90;99.90;;;;;;2609907;47;20419;-74
2022/01/06 03:09:53;;;;;;;8.13;4.30;;;3.80;99.90;;;;;;2610089;51;20687;-75
2022/01/06 03:12:25;;;;;;;14.70;4.37;;;3.80;99.90;;;;;;2610133;54;20407;-74
2022/01/06 03:14:52;;;;;;;11.70;4.30;;;3.80;99.90;;;;;;2610330;54;20940;-75
2022/01/06 03:17:18;;;;;;;14.33;6.27;;;3.70;99.90;;;;;;2610450;47;20439;-74
2022/01/06 03:19:45;;;;;;;14.57;4.67;;;3.60;99.90;;;;;;2608031;54;20435;-73
2022/01/06 03:22:11;;;;;;;19.17;5.17;;;3.50;99.90;;;;;;2609059;47;20432;-74
2022/01/06 03:24:37;;;;;;;11.30;4.30;;;3.40;99.90;;;;;;2610376;54;20423;-74
2022/01/06 03:27:03;;;;;;;9.83;4.87;;;3.50;99.90;;;;;;2609152;47;21508;-75
2022/01/06 03:29:29;;;;;;;11.33;4.97;;;3.30;99.90;;;;;;2609708;54;20161;-74
2022/01/06 03:31:55;;;;;;;19.87;6.07;;;3.30;99.90;;;;;;2611196;39;20804;-75
2022/01/06 03:34:20;;;;;;;12.03;4.40;;;3.20;99.90;;;;;;2609497;47;20403;-74
2022/01/06 03:36:46;;;;;;;13.23;4.50;;;3.20;99.90;;;;;;2611423;54;20143;-76
2022/01/06 03:39:12;;;;;;;9.50;4.37;;;3.20;99.90;;;;;;2611545;54;20972;-75
2022/01/06 03:41:38;;;;;;;14.93;7.90;;;3.20;99.90;;;;;;2610225;54;20162;-75
2022/01/06 03:44:04;;;;;;;5.63;3.83;;;3.20;99.90;;;;;;2611031;54;20400;-74
2022/01/06 03:46:30;;;;;;;12.07;4.83;;;3.10;99.90;;;;;;2610159;54;20431;-74
2022/01/06 03:48:56;;;;;;;14.80;6.77;;;3.10;99.90;;;;;;2611628;54;20479;-74
2022/01/06 03:51:23;;;;;;;11.97;5.10;;;3.10;99.90;;;;;;2610277;47;20415;-74
2022/01/06 03:53:50;;;;;;;17.83;5.20;;;3.10;99.90;;;;;;2610945;54;20408;-74
2022/01/06 03:56:16;;;;;;;21.77;5.13;;;3.10;99.90;;;;;;2610090;47;20398;-75
2022/01/06 03:58:44;;;;;;;16.57;5.40;;;3.10;99.90;;;;;;2610023;54;20391;-74
2022/01/06 04:01:10;;;;;;;24.47;5.83;;;3.00;99.90;;;;;;2610394;54;20376;-75
2022/01/06 04:03:36;;;;;;;12.10;4.50;;;2.90;99.90;;;;;;2609977;54;20401;-74
2022/01/06 04:06:02;;;;;;;4.73;3.30;;;2.90;99.90;;;;;;2610207;54;20499;-74
2022/01/06 04:08:28;;;;;;;17.90;4.93;;;2.90;99.90;;;;;;2610780;54;20163;-74
2022/01/06 04:10:54;;;;;;;18.60;4.53;;;2.90;99.90;;;;;;2610956;54;20428;-74
2022/01/06 04:13:20;;;;;;;11.97;4.33;;;2.90;99.90;;;;;;2609780;54;20968;-75
2022/01/06 04:15:47;;;;;;;11.47;4.60;;;2.80;99.90;;;;;;2612555;54;20452;-75
2022/01/06 04:18:13;;;;;;;9.73;4.13;;;2.80;99.90;;;;;;2611276;39;20568;-74
2022/01/06 04:20:39;;;;;;;12.87;4.40;;;2.80;99.90;;;;;;2610470;47;20461;-74
2022/01/06 04:23:04;;;;;;;11.30;4.57;;;2.70;99.90;;;;;;2609246;54;20985;-74
2022/01/06 04:25:30;;;;;;;9.60;4.00;;;2.70;99.90;;;;;;2611677;54;20151;-75
2022/01/06 04:27:57;;;;;;;9.20;3.93;;;2.70;99.90;;;;;;2609568;54;20412;-74
2022/01/06 04:30:23;;;;;;;23.70;6.77;;;2.60;99.90;;;;;;2611304;54;20140;-75
2022/01/06 04:32:49;;;;;;;12.87;4.67;;;2.60;99.90;;;;;;2610336;46;20438;-74
2022/01/06 04:35:14;;;;;;;13.00;4.70;;;2.70;99.90;;;;;;2611454;54;21109;-75
2022/01/06 04:37:40;;;;;;;17.37;5.70;;;2.60;99.90;;;;;;2610169;47;20440;-75
2022/01/06 04:40:08;;;;;;;15.00;4.87;;;2.70;99.90;;;;;;2611233;39;20553;-73
2022/01/06 04:42:34;;;;;;;17.63;5.17;;;2.70;99.90;;;;;;2609548;54;20143;-74
2022/01/06 04:45:00;;;;;;;6.87;3.90;;;2.60;99.90;;;;;;2610998;54;20415;-74
2022/01/06 04:47:26;;;;;;;12.33;4.83;;;2.60;99.90;;;;;;2610954;54;20430;-73
2022/01/06 04:49:52;;;;;;;12.40;3.83;;;2.60;99.90;;;;;;2609565;54;20495;-75
2022/01/06 04:52:18;;;;;;;17.90;5.03;;;2.60;99.90;;;;;;2610321;54;20442;-76
2022/01/06 04:54:44;;;;;;;18.00;4.90;;;2.60;99.90;;;;;;2612089;31;20938;-74
2022/01/06 04:57:10;;;;;;;5.60;4.57;;;2.60;99.90;;;;;;2610661;47;21083;-75
2022/01/06 04:59:36;;;;;;;17.97;4.90;;;2.50;99.90;;;;;;2611092;54;20435;-75
2022/01/06 05:02:03;;;;;;;7.97;3.60;;;2.50;99.90;;;;;;2610709;39;20229;-74
2022/01/06 05:04:29;;;;;;;20.57;4.73;;;2.50;99.90;;;;;;2611037;47;20416;-74
2022/01/06 05:06:55;;;;;;;19.03;4.50;;;2.50;99.90;;;;;;2610310;39;20901;-74
2022/01/06 05:09:21;;;;;;;10.90;3.80;;;2.50;99.90;;;;;;2611837;50;20514;-74
2022/01/06 05:11:46;;;;;;;19.03;5.00;;;2.50;99.90;;;;;;2609926;54;20442;-75
2022/01/06 05:14:12;;;;;;;15.30;4.63;;;2.40;99.90;;;;;;2610924;54;20280;-74
2022/01/06 05:16:38;;;;;;;16.80;5.17;;;2.40;99.90;;;;;;2610241;47;20158;-74
2022/01/06 05:19:04;;;;;;;13.30;4.90;;;2.40;99.90;;;;;;2611455;54;20250;-74
2022/01/06 05:21:32;;;;;;;10.50;4.30;;;2.40;99.90;;;;;;2609394;39;21248;-74
2022/01/06 05:23:58;;;;;;;10.20;5.40;;;2.40;99.90;;;;;;2610555;54;20423;-76
2022/01/06 05:26:25;;;;;;;8.87;4.60;;;2.40;99.90;;;;;;2610331;54;20411;-74
2022/01/06 05:28:51;;;;;;;7.50;5.37;;;2.30;99.90;;;;;;2610563;54;20411;-75
2022/01/06 05:31:17;;;;;;;10.80;4.80;;;2.40;99.90;;;;;;2611081;39;20818;-74
2022/01/06 05:33:43;;;;;;;20.60;5.07;;;2.40;99.90;;;;;;2612177;54;20234;-74
2022/01/06 05:36:09;;;;;;;11.60;4.47;;;2.40;99.90;;;;;;2612032;47;20488;-74
2022/01/06 05:38:35;;;;;;;12.57;5.00;;;2.40;99.90;;;;;;2610368;54;20508;-74
2022/01/06 05:41:00;;;;;;;10.00;4.60;;;2.40;99.90;;;;;;2612317;54;20174;-74
2022/01/06 05:43:27;;;;;;;9.20;4.17;;;2.30;99.90;;;;;;2609826;54;20420;-74
2022/01/06 05:45:56;;;;;;;21.37;5.10;;;2.30;99.90;;;;;;2610782;54;20658;-74
2022/01/06 05:48:22;;;;;;;22.13;7.30;;;2.30;99.90;;;;;;2610517;47;20431;-74
2022/01/06 05:50:49;;;;;;;10.43;4.40;;;2.30;99.90;;;;;;2609825;54;20474;-74
2022/01/06 05:53:17;;;;;;;19.43;5.93;;;2.20;99.90;;;;;;2610490;39;20825;-74
2022/01/06 05:55:44;;;;;;;18.03;5.63;;;2.20;99.90;;;;;;2609725;54;20435;-74
2022/01/06 05:58:10;;;;;;;27.67;5.87;;;2.20;99.90;;;;;;2612216;54;20407;-74
2022/01/06 06:00:36;;;;;;;11.50;6.13;;;2.20;99.90;;;;;;2610698;54;20531;-75
2022/01/06 06:03:02;;;;;;;10.27;6.70;;;2.40;99.90;;;;;;2608813;54;20909;-74
2022/01/06 06:05:28;;;;;;;11.47;5.07;;;2.40;99.90;;;;;;2611689;39;21352;-74
2022/01/06 06:07:54;;;;;;;23.00;6.50;;;2.20;99.90;;;;;;2610691;47;20436;-73
2022/01/06 06:10:20;;;;;;;18.13;5.30;;;2.20;99.90;;;;;;2611067;54;20142;-74
2022/01/06 06:12:46;;;;;;;13.87;5.90;;;2.10;99.90;;;;;;2608229;54;22010;-74
2022/01/06 06:15:11;;;;;;;11.20;5.90;;;2.20;99.90;;;;;;2609879;47;20482;-74
2022/01/06 06:17:37;;;;;;;22.33;5.90;;;2.20;99.90;;;;;;2609406;54;20466;-75
2022/01/06 06:20:04;;;;;;;17.77;6.83;;;2.20;99.90;;;;;;2608903;54;20438;-74
2022/01/06 06:22:29;;;;;;;14.20;5.83;;;2.20;99.90;;;;;;2607572;47;20167;-73
2022/01/06 06:24:55;;;;;;;9.10;5.60;;;2.20;99.90;;;;;;2612290;54;20417;-74
2022/01/06 06:27:21;;;;;;;15.93;6.40;;;2.30;99.90;;;;;;2608264;54;20468;-75
2022/01/06 06:29:47;;;;;;;23.67;6.50;;;2.30;99.90;;;;;;2610117;47;20403;-75
2022/01/06 06:32:14;;;;;;;19.63;7.70;;;2.30;99.90;;;;;;2608407;47;20514;-74
2022/01/06 06:34:40;;;;;;;14.07;6.47;;;2.40;99.90;;;;;;2609560;39;20840;-75
2022/01/06 06:37:06;;;;;;;13.47;6.23;;;2.40;99.90;;;;;;2608117;54;20520;-75
2022/01/06 06:39:32;;;;;;;10.87;5.53;;;2.40;99.90;;;;;;2611651;31;20626;-75
2022/01/06 06:41:58;;;;;;;14.77;7.17;;;2.40;99.90;;;;;;2609781;47;20499;-75
2022/01/06 06:44:24;;;;;;;10.53;5.13;;;2.50;99.90;;;;;;2608379;54;20416;-75
2022/01/06 06:46:52;;;;;;;9.77;5.60;;;2.50;99.90;;;;;;2609459;54;20147;-74
2022/01/06 06:49:18;;;;;;;11.60;6.43;;;2.50;99.90;;;;;;2611998;54;20404;-75
2022/01/06 06:51:43;;;;;;;12.50;7.30;;;2.50;99.90;;;;;;2610926;54;20410;-75
2022/01/06 06:54:09;;;;;;;11.17;6.40;;;2.60;99.90;;;;;;2611797;54;20411;-75
2022/01/06 06:56:35;;;;;;;17.53;6.27;;;2.60;99.90;;;;;;2610712;54;20155;-74
2022/01/06 06:59:01;;;;;;;10.87;6.60;;;2.60;99.90;;;;;;2612522;54;20427;-74
2022/01/06 07:01:27;;;;;;;20.17;5.83;;;2.40;99.90;;;;;;2610674;47;21030;-75
2022/01/06 07:03:53;;;;;;;17.10;7.03;;;2.30;99.90;;;;;;2610774;54;20420;-73
2022/01/06 07:06:19;;;;;;;13.83;6.90;;;2.30;99.90;;;;;;2611144;39;20566;-73
2022/01/06 07:08:44;;;;;;;18.87;6.77;;;2.40;99.90;;;;;;2611675;39;21485;-75
2022/01/06 07:11:10;;;;;;;9.97;7.37;;;2.30;99.90;;;;;;2612893;54;20395;-75
2022/01/06 07:13:36;;;;;;;13.30;7.53;;;2.40;99.90;;;;;;2614080;54;20165;-74
2022/01/06 07:16:02;;;;;;;17.03;9.00;;;2.40;99.90;;;;;;2612164;47;20282;-76
2022/01/06 07:18:28;;;;;;;18.03;7.67;;;2.50;99.90;;;;;;2612617;47;20186;-75
2022/01/06 07:20:54;;;;;;;15.33;6.87;;;2.40;99.90;;;;;;2612857;54;20427;-75
2022/01/06 07:23:19;;;;;;;18.07;7.10;;;2.60;99.90;;;;;;2611016;54;20161;-76
2022/01/06 07:25:45;;;;;;;12.63;7.30;;;2.30;99.90;;;;;;2612566;47;20229;-74
2022/01/06 07:28:11;;;;;;;9.73;7.03;;;2.20;99.90;;;;;;2610961;54;20407;-77
2022/01/06 07:30:37;;;;;;;7.07;5.90;;;2.20;99.90;;;;;;2612097;46;20806;-76
2022/01/06 07:33:03;;;;;;;6.83;5.90;;;2.20;99.90;;;;;;2610307;54;20451;-77
2022/01/06 07:35:29;;;;;;;14.03;8.27;;;2.30;99.90;;;;;;2609833;54;20415;-77
2022/01/06 07:37:55;;;;;;;13.73;6.97;;;2.20;99.90;;;;;;2612701;47;22787;-75
2022/01/06 07:40:21;;;;;;;14.60;7.47;;;2.20;99.90;;;;;;2612724;54;20408;-76
2022/01/06 07:42:51;;;;;;;23.50;9.07;;;2.20;99.90;;;;;;2612807;54;20395;-76
2022/01/06 07:45:18;;;;;;;10.43;7.43;;;2.20;99.90;;;;;;2613400;47;20439;-77
2022/01/06 07:47:55;;;;;;;12.03;7.73;;;2.30;99.90;;;;;;2613479;47;20453;-76
2022/01/06 07:50:25;;;;;;;15.30;7.23;;;2.30;99.90;;;;;;2610843;47;20414;-79
2022/01/06 07:52:50;;;;;;;34.20;8.00;;;2.30;99.90;;;;;;2612196;39;20763;-79
2022/01/06 07:55:17;;;;;;;14.57;8.13;;;2.20;99.90;;;;;;2613569;47;20434;-78
2022/01/06 07:57:44;;;;;;;15.23;6.83;;;2.20;99.90;;;;;;2613973;54;20558;-76
2022/01/06 08:00:10;;;;;;;13.43;7.83;;;2.10;99.90;;;;;;2612296;39;20795;-77
2022/01/06 08:02:45;;;;;;;16.00;8.20;;;2.20;99.90;;;;;;2613592;47;21265;-77
2022/01/06 08:05:14;;;;;;;11.83;9.50;;;2.20;99.90;;;;;;2611947;39;20827;-77
2022/01/06 08:07:40;;;;;;;11.67;8.47;;;2.30;99.90;;;;;;2613361;54;20447;-76
2022/01/06 08:10:08;;;;;;;31.37;11.30;;;2.20;99.90;;;;;;2613882;54;20415;-78
2022/01/06 08:12:36;;;;;;;16.60;8.93;;;2.20;99.90;;;;;;2612809;47;20560;-77
2022/01/06 08:15:11;;;;;;;28.13;9.70;;;2.30;99.90;;;;;;2613752;54;20420;-77
2022/01/06 08:17:38;;;;;;;14.70;10.50;;;2.50;99.90;;;;;;2612540;54;20974;-77
2022/01/06 08:20:06;;;;;;;19.47;10.27;;;2.50;99.90;;;;;;2613660;47;20509;-76
2022/01/06 08:22:39;;;;;;;23.97;9.80;;;2.80;99.90;;;;;;2613712;39;20889;-78
2022/01/06 08:25:14;;;;;;;13.77;11.40;;;2.90;99.90;;;;;;2612962;54;20423;-76
2022/01/06 08:27:49;;;;;;;23.90;11.10;;;3.20;99.90;;;;;;2611771;47;20418;-78
2022/01/06 08:30:16;;;;;;;16.43;8.77;;;3.30;99.90;;;;;;2627857;36;21577;-79
2022/01/06 08:32:42;;;;;;;14.00;9.90;;;3.80;99.90;;;;;;2610648;54;20425;-77
2022/01/06 08:35:08;;;;;;;12.23;9.23;;;3.70;99.90;;;;;;2612706;47;20998;-76
2022/01/06 08:37:35;;;;;;;25.43;10.37;;;3.50;99.90;;;;;;2612927;54;20453;-75
2022/01/06 08:40:01;;;;;;;24.53;9.43;;;3.80;99.90;;;;;;2614207;54;20415;-78
2022/01/06 08:42:30;;;;;;;19.57;10.20;;;4.40;99.90;;;;;;2613117;39;20565;-77
2022/01/06 08:44:57;;;;;;;12.73;8.40;;;4.70;99.90;;;;;;2611943;47;20428;-75
2022/01/06 08:47:24;;;;;;;25.43;10.20;;;4.30;99.90;;;;;;2612028;54;20428;-77
2022/01/06 08:49:50;;;;;;;17.00;9.47;;;4.10;99.90;;;;;;2610701;54;20408;-76
2022/01/06 08:52:16;;;;;;;24.80;9.87;;;4.50;99.90;;;;;;2612773;54;20396;-74
2022/01/06 08:54:41;;;;;;;19.60;10.30;;;5.10;99.90;;;;;;2613254;54;20424;-76
2022/01/06 08:57:07;;;;;;;14.63;8.80;;;5.90;99.90;;;;;;2612968;54;20431;-76
2022/01/06 08:59:34;;;;;;;15.03;9.60;;;6.50;99.90;;;;;;2612311;51;20159;-76
2022/01/06 09:02:00;;;;;;;12.57;9.00;;;6.70;99.90;;;;;;2613394;54;20432;-73
2022/01/06 09:04:25;;;;;;;17.80;9.40;;;6.80;99.90;;;;;;2612585;54;20391;-74
2022/01/06 09:06:52;;;;;;;16.23;9.50;;;6.00;99.90;;;;;;2612149;47;21298;-75
2022/01/06 09:09:18;;;;;;;19.57;9.57;;;5.90;99.90;;;;;;2613163;54;20155;-76
2022/01/06 09:11:45;;;;;;;18.90;8.43;;;6.40;99.90;;;;;;2611723;54;20434;-75
2022/01/06 09:14:12;;;;;;;21.33;9.17;;;6.10;99.90;;;;;;2611889;47;20988;-74
2022/01/06 09:16:39;;;;;;;16.40;7.73;;;6.20;99.90;;;;;;2613712;39;20924;-74
2022/01/06 09:19:05;;;;;;;12.90;7.03;;;6.00;99.90;;;;;;2611505;54;20456;-78
2022/01/06 09:21:32;;;;;;;10.00;6.80;;;5.30;99.90;;;;;;2610379;39;20789;-76
2022/01/06 09:24:01;;;;;;;23.50;9.20;;;5.20;99.90;;;;;;2611194;54;20416;-77
2022/01/06 09:26:27;;;;;;;16.37;10.27;;;5.90;99.90;;;;;;2611578;47;20427;-74
2022/01/06 09:28:53;;;;;;;16.93;7.20;;;6.10;99.90;;;;;;2611483;54;20451;-77
2022/01/06 09:31:19;;;;;;;15.63;8.17;;;5.60;99.90;;;;;;2611222;54;20412;-77
2022/01/06 09:33:47;;;;;;;20.07;8.60;;;6.00;99.90;;;;;;2610483;54;20695;-76
2022/01/06 09:36:14;;;;;;;22.20;7.97;;;5.90;99.90;;;;;;2610814;39;20903;-76
2022/01/06 09:38:41;;;;;;;22.97;7.80;;;5.70;99.90;;;;;;2611019;54;21051;-78
2022/01/06 09:41:07;;;;;;;12.00;7.57;;;6.50;99.90;;;;;;2611337;54;20416;-76
2022/01/06 09:43:35;;;;;;;14.37;7.10;;;6.80;99.90;;;;;;2609693;47;20468;-75
2022/01/06 09:46:06;;;;;;;11.87;7.13;;;6.70;99.90;;;;;;2611367;39;22290;-75
2022/01/06 09:48:37;;;;;;;17.77;7.43;;;7.30;99.90;;;;;;2611990;47;20404;-75
2022/01/06 09:51:04;;;;;;;17.13;8.53;;;8.70;99.90;;;;;;2611025;47;20419;-76
2022/01/06 09:53:29;;;;;;;13.90;7.10;;;10.30;99.90;;;;;;2610396;54;20419;-75
2022/01/06 09:55:57;;;;;;;20.93;8.00;;;10.40;99.90;;;;;;2611464;54;20495;-75
2022/01/06 09:58:26;;;;;;;18.30;8.40;;;9.40;99.90;;;;;;2607055;47;20423;-75
2022/01/06 10:00:52;;;;;;;15.00;7.73;;;10.00;99.90;;;;;;2611588;54;21176;-75
2022/01/06 10:03:19;;;;;;;11.60;7.30;;;10.00;99.90;;;;;;2609592;47;20426;-75
2022/01/06 10:05:46;;;;;;;13.00;5.80;;;10.00;99.90;;;;;;2609555;54;20426;-74
2022/01/06 10:08:13;;;;;;;19.00;7.20;;;10.40;99.90;;;;;;2612327;31;20924;-76
2022/01/06 10:10:41;;;;;;;12.87;6.37;;;11.60;94.10;;;;;;2612267;54;20509;-75
2022/01/06 10:13:09;;;;;;;18.93;6.47;;;11.90;91.60;;;;;;2612182;54;20410;-75
2022/01/06 10:15:38;;;;;;;16.63;6.37;;;12.90;74.30;;;;;;2608412;47;21068;-76
2022/01/06 10:18:15;;;;;;;16.30;7.13;;;11.70;88.00;;;;;;2611508;39;20974;-75
2022/01/06 10:20:42;;;;;;;13.03;6.20;;;11.30;91.20;;;;;;2609953;47;20422;-75
2022/01/06 10:23:14;;;;;;;11.57;5.63;;;12.40;82.80;;;;;;2611993;54;20396;-75
2022/01/06 10:25:49;;;;;;;16.37;6.50;;;11.10;93.70;;;;;;2611610;54;20422;-77
2022/01/06 10:28:24;;;;;;;12.13;6.73;;;12.80;74.40;;;;;;2610807;54;21017;-78
2022/01/06 10:30:50;;;;;;;13.03;6.20;;;13.20;67.40;;;;;;2606811;54;20501;-75
2022/01/06 10:33:18;;;;;;;13.00;6.67;;;12.70;74.10;;;;;;2611258;54;20471;-75
2022/01/06 10:35:45;;;;;;;15.63;6.03;;;13.90;53.70;;;;;;2610758;54;20426;-75
2022/01/06 10:38:11;;;;;;;14.07;5.53;;;11.20;88.80;;;;;;2610004;54;20945;-74
2022/01/06 10:40:38;;;;;;;14.50;5.73;;;9.70;99.90;;;;;;2608672;47;20495;-75
2022/01/06 10:43:06;;;;;;;11.63;5.90;;;9.20;99.90;;;;;;2611421;54;21108;-75
2022/01/06 10:45:34;;;;;;;12.77;5.20;;;10.50;99.90;;;;;;2608093;54;21000;-75
2022/01/06 10:48:03;;;;;;;11.30;5.97;;;10.40;99.90;;;;;;2608108;54;21047;-75
2022/01/06 10:50:31;;;;;;;11.20;6.20;;;10.50;99.90;;;;;;2611932;54;20446;-74
2022/01/06 10:53:00;;;;;;;18.47;6.10;;;9.50;99.90;;;;;;2611205;54;20990;-74
2022/01/06 10:55:31;;;;;;;12.67;4.83;;;11.60;97.70;;;;;;2611000;54;20965;-75
2022/01/06 10:57:59;;;;;;;9.37;4.57;;;11.10;95.70;;;;;;2609911;54;20568;-76
2022/01/06 11:00:31;;;;;;;13.87;5.83;;;10.40;99.30;;;;;;2612106;54;20960;-74
2022/01/06 11:03:19;;;;;;;11.70;5.10;;;10.10;99.90;;;;;;2609509;39;20723;-75
2022/01/06 11:05:54;;;;;;;11.80;6.27;;;8.90;99.90;;;;;;2611114;54;20423;-75
2022/01/06 11:08:25;;;;;;;12.53;6.03;;;10.10;99.90;;;;;;2609923;54;21046;-75
2022/01/06 11:13:41;;;;;;;10.40;5.90;;;10.00;99.90;;;;;;2610523;54;20423;-74
2022/01/06 11:16:12;;;;;;;12.70;6.10;;;12.00;85.20;;;;;;2608886;47;20419;-76
2022/01/06 11:18:59;;;;;;;13.20;4.93;;;12.30;86.70;;;;;;2610670;54;21014;-75
2022/01/06 11:21:59;;;;;;;14.20;6.00;;;12.60;67.70;;;;;;2609126;47;20459;-74
2022/01/06 11:24:28;;;;;;;9.27;5.37;;;10.50;98.10;;;;;;2609827;54;20415;-74
2022/01/06 11:26:58;;;;;;;13.93;4.83;;;10.50;96.00;;;;;;2609303;47;20419;-73
2022/01/06 11:29:32;;;;;;;15.00;6.73;;;8.50;99.90;;;;;;2611562;54;20408;-76
2022/01/06 11:31:59;;;;;;;15.37;5.60;;;7.70;99.90;;;;;;2610161;39;20867;-75
2022/01/06 11:34:28;;;;;;;14.93;6.60;;;8.60;99.90;;;;;;2611968;54;20455;-74
2022/01/06 11:36:55;;;;;;;15.10;6.30;;;10.30;99.90;;;;;;2609330;54;20430;-76
2022/01/06 11:39:30;;;;;;;12.00;5.57;;;11.30;90.60;;;;;;2609206;47;20443;-74
2022/01/06 11:41:58;;;;;;;15.23;7.10;;;10.00;99.90;;;;;;2612435;54;20454;-74
2022/01/06 11:44:31;;;;;;;16.17;7.70;;;10.30;99.90;;;;;;2609048;54;20427;-74
2022/01/06 11:46:59;;;;;;;11.97;5.70;;;10.40;96.80;;;;;;2609643;54;20947;-77
2022/01/06 11:49:39;;;;;;;18.50;7.07;;;10.20;99.90;;;;;;2609957;54;20503;-73
2022/01/06 11:52:12;;;;;;;15.63;7.70;;;9.10;99.90;;;;;;2611356;54;20420;-74
2022/01/06 11:54:56;;;;;;;14.40;6.77;;;9.10;99.90;;;;;;2611693;54;20411;-74
2022/01/06 11:57:34;;;;;;;11.17;7.60;;;10.30;99.90;;;;;;2611170;54;20386;-75
2022/01/06 12:00:13;;;;;;;17.00;7.37;;;11.00;95.80;;;;;;2612552;54;20423;-74
2022/01/06 12:02:40;;;;;;;17.10;8.60;;;10.90;99.00;;;;;;2608835;54;20407;-76
2022/01/06 12:05:08;;;;;;;15.20;8.30;;;12.10;85.00;;;;;;2612605;54;20428;-75
2022/01/06 12:07:33;;;;;;;16.73;8.20;;;11.60;83.90;;;;;;2607242;54;20416;-75
2022/01/06 12:10:06;;;;;;;24.17;8.30;;;9.30;99.90;;;;;;2611531;54;20200;-76
2022/01/06 12:12:35;;;;;;;12.00;8.80;;;9.20;99.90;;;;;;2610548;47;20167;-75
2022/01/06 12:15:16;;;;;;;23.27;9.63;;;7.90;99.90;;;;;;2609625;54;21027;-75
2022/01/06 12:17:52;;;;;;;17.37;9.90;;;8.00;99.90;;;;;;2609167;47;20422;-75
2022/01/06 12:20:24;;;;;;;22.13;10.97;;;8.90;99.90;;;;;;2612246;54;20537;-74
2022/01/06 12:22:50;;;;;;;18.97;11.53;;;7.80;99.90;;;;;;2611562;39;20814;-75
2022/01/06 12:25:20;;;;;;;17.93;10.80;;;7.50;99.90;;;;;;2610958;54;20439;-75
2022/01/06 12:27:49;;;;;;;16.47;9.93;;;8.50;99.90;;;;;;2612704;54;21034;-74
2022/01/06 12:30:18;;;;;;;14.70;10.97;;;9.40;99.90;;;;;;2611173;39;21042;-76
2022/01/06 12:32:55;;;;;;;25.73;13.40;;;9.30;99.90;;;;;;2611522;54;20468;-76
2022/01/06 12:35:32;;;;;;;24.50;13.00;;;9.30;99.90;;;;;;2610947;54;20415;-75
2022/01/06 12:37:58;;;;;;;20.33;13.20;;;8.80;99.90;;;;;;2611699;54;20447;-74
2022/01/06 12:40:51;;;;;;;23.50;12.83;;;8.10;99.90;;;;;;2610778;39;20935;-75
2022/01/06 12:43:18;;;;;;;39.43;14.53;;;7.80;99.90;;;;;;2608956;47;21075;-77
2022/01/06 12:45:45;;;;;;;28.83;14.13;;;7.90;99.90;;;;;;2610201;48;20462;-75
2022/01/06 12:48:13;;;;;;;22.93;14.87;;;8.80;99.90;;;;;;2610379;51;20412;-75
2022/01/06 12:50:45;;;;;;;23.83;15.23;;;9.00;99.90;;;;;;2609850;47;20879;-78
2022/01/06 12:53:11;;;;;;;24.30;16.13;;;8.00;99.90;;;;;;2611739;39;20792;-75
2022/01/06 12:55:44;;;;;;;20.97;15.27;;;8.30;99.90;;;;;;2610120;47;20435;-75
2022/01/06 12:58:10;;;;;;;21.87;15.30;;;10.10;99.90;;;;;;2610752;39;20817;-73
2022/01/06 13:00:36;;;;;;;28.03;17.37;;;10.60;98.60;;;;;;2610328;48;20435;-76
2022/01/06 13:03:05;;;;;;;30.10;17.90;;;9.10;99.90;;;;;;2610033;39;21887;-73